createdAt,value
2023-03-20T00:02:11.784Z,57.97
2023-03-20T00:04:40.234Z,57.85
2023-03-20T00:07:12.039Z,57.60
2023-03-20T00:09:40.691Z,57.36
2023-03-20T00:12:11.479Z,56.94
2023-03-20T00:14:39.562Z,56.75
2023-03-20T00:17:12.060Z,56.58
2023-03-20T00:19:39.933Z,56.88
2023-03-20T00:22:09.616Z,56.66
2023-03-20T00:24:37.440Z,56.49
2023-03-20T00:27:05.985Z,56.58
2023-03-20T00:29:34.591Z,56.57
2023-03-20T00:32:02.854Z,56.58
2023-03-20T00:34:32.652Z,56.37
2023-03-20T00:37:01.045Z,56.45
2023-03-20T00:39:37.662Z,56.33
2023-03-20T00:42:15.382Z,56.25
2023-03-20T00:44:52.564Z,56.31
2023-03-20T00:47:27.294Z,56.42
2023-03-20T00:49:58.412Z,56.64
2023-03-20T00:52:26.808Z,56.77
2023-03-20T00:54:55.463Z,56.90
2023-03-20T00:57:30.341Z,56.90
2023-03-20T01:00:02.157Z,56.98
2023-03-20T01:02:32.140Z,57.08
2023-03-20T01:05:05.019Z,56.93
2023-03-20T01:07:33.841Z,56.88
2023-03-20T01:10:04.164Z,56.78
2023-03-20T01:12:32.181Z,56.68
2023-03-20T01:15:01.547Z,56.58
2023-03-20T01:17:30.445Z,56.53
2023-03-20T01:19:58.835Z,56.56
2023-03-20T01:22:28.222Z,56.71
2023-03-20T01:24:56.431Z,56.71
2023-03-20T01:27:26.520Z,56.78
2023-03-20T01:29:54.450Z,56.74
2023-03-20T01:32:22.629Z,56.97
2023-03-20T01:34:51.326Z,57.19
2023-03-20T01:37:26.009Z,57.22
2023-03-20T01:39:57.228Z,57.31
2023-03-20T01:42:25.869Z,57.86
2023-03-20T01:44:53.812Z,57.51
2023-03-20T01:47:24.872Z,57.38
2023-03-20T01:50:26.628Z,57.30
2023-03-20T01:53:03.093Z,57.76
2023-03-20T01:55:33.800Z,57.21
2023-03-20T01:58:06.926Z,57.07
2023-03-20T02:00:36.589Z,56.92
2023-03-20T02:03:08.841Z,56.95
2023-03-20T02:05:39.884Z,57.26
2023-03-20T02:08:17.700Z,57.00
2023-03-20T02:10:48.217Z,57.03
2023-03-20T02:13:17.656Z,56.95
2023-03-20T02:16:03.649Z,56.82
2023-03-20T02:18:33.087Z,57.32
2023-03-20T02:21:27.486Z,56.79
2023-03-20T02:24:25.208Z,57.14
2023-03-20T02:27:07.358Z,57.27
2023-03-20T02:30:08.869Z,57.35
2023-03-20T02:33:04.640Z,57.96
2023-03-20T02:36:00.928Z,57.51
2023-03-20T02:38:51.782Z,57.68
2023-03-20T02:41:27.205Z,57.68
2023-03-20T02:44:05.169Z,57.32
2023-03-20T02:46:42.175Z,57.60
2023-03-20T02:49:19.661Z,57.75
2023-03-20T02:51:53.566Z,58.17
2023-03-20T02:54:34.414Z,57.95
2023-03-20T02:57:08.719Z,58.15
2023-03-20T02:59:48.020Z,57.59
2023-03-20T03:02:21.404Z,57.95
2023-03-20T03:04:53.323Z,57.79
2023-03-20T03:07:26.953Z,58.01
2023-03-20T03:10:01.693Z,58.19
2023-03-20T03:12:37.938Z,58.41
2023-03-20T03:15:12.357Z,59.02
2023-03-20T03:17:46.229Z,58.63
2023-03-20T03:20:22.349Z,58.62
2023-03-20T03:22:55.132Z,58.53
2023-03-20T03:25:28.488Z,58.31
2023-03-20T03:28:06.895Z,58.24
2023-03-20T03:30:40.794Z,58.55
2023-03-20T03:33:17.403Z,58.14
2023-03-20T03:35:50.015Z,58.17
2023-03-20T03:38:31.318Z,58.64
2023-03-20T03:41:19.306Z,59.40
2023-03-20T03:43:56.938Z,59.16
2023-03-20T03:46:34.413Z,58.66
2023-03-20T03:49:06.801Z,58.79
2023-03-20T03:51:40.151Z,58.38
2023-03-20T03:54:13.886Z,58.34
2023-03-20T03:56:49.123Z,58.73
2023-03-20T03:59:24.864Z,58.91
2023-03-20T04:01:56.157Z,58.65
2023-03-20T04:04:27.433Z,58.78
2023-03-20T04:06:58.429Z,59.27
2023-03-20T04:09:27.659Z,58.67
2023-03-20T04:11:59.008Z,58.68
2023-03-20T04:14:29.488Z,58.72
2023-03-20T04:17:01.065Z,58.87
2023-03-20T04:19:33.933Z,58.75
2023-03-20T04:22:02.434Z,58.86
2023-03-20T04:24:32.025Z,59.03
2023-03-20T04:27:01.306Z,58.97
2023-03-20T04:29:29.628Z,59.25
2023-03-20T04:31:58.240Z,59.07
2023-03-20T04:34:27.162Z,59.22
2023-03-20T04:36:55.357Z,59.08
2023-03-20T04:39:26.818Z,59.45
2023-03-20T04:41:55.731Z,59.27
2023-03-20T04:44:25.806Z,59.86
2023-03-20T04:46:55.273Z,59.00
2023-03-20T04:49:25.147Z,59.71
2023-03-20T04:51:54.604Z,59.53
2023-03-20T04:54:27.868Z,59.61
2023-03-20T04:56:57.119Z,60.03
2023-03-20T04:59:28.645Z,59.53
2023-03-20T05:01:58.447Z,59.58
2023-03-20T05:04:28.045Z,59.87
2023-03-20T05:06:57.501Z,59.42
2023-03-20T05:09:28.227Z,59.18
2023-03-20T05:11:58.920Z,58.68
2023-03-20T05:14:32.521Z,58.48
2023-03-20T05:17:03.601Z,58.54
2023-03-20T05:19:33.182Z,58.48
2023-03-20T05:22:02.915Z,58.38
2023-03-20T05:24:32.341Z,58.37
2023-03-20T05:27:01.744Z,58.71
2023-03-20T05:29:34.176Z,58.91
2023-03-20T05:32:08.848Z,59.13
2023-03-20T05:34:40.577Z,60.87
2023-03-20T05:37:09.968Z,60.58
2023-03-20T05:39:40.293Z,59.94
2023-03-20T05:42:09.971Z,59.55
2023-03-20T05:44:41.142Z,60.05
2023-03-20T05:47:09.834Z,60.91
2023-03-20T05:49:38.320Z,61.91
2023-03-20T05:52:07.306Z,61.63
2023-03-20T05:54:36.623Z,62.00
2023-03-20T05:57:04.867Z,61.13
2023-03-20T05:59:33.506Z,61.03
2023-03-20T06:02:03.451Z,61.33
2023-03-20T06:04:32.175Z,61.96
2023-03-20T06:07:01.018Z,62.75
2023-03-20T06:09:29.632Z,63.15
2023-03-20T06:11:58.036Z,62.63
2023-03-20T06:14:26.508Z,62.80
2023-03-20T06:16:55.043Z,65.60
2023-03-20T06:19:25.987Z,62.38
2023-03-20T06:21:53.955Z,63.05
2023-03-20T06:24:22.351Z,64.40
2023-03-20T06:26:50.969Z,64.38
2023-03-20T06:29:19.936Z,63.26
2023-03-20T06:31:48.229Z,63.59
2023-03-20T06:34:17.329Z,63.81
2023-03-20T06:36:46.942Z,63.47
2023-03-20T06:39:16.239Z,63.05
2023-03-20T06:41:44.773Z,63.28
2023-03-20T06:44:12.888Z,63.46
2023-03-20T06:46:44.949Z,62.95
2023-03-20T06:49:13.619Z,62.66
2023-03-20T06:51:42.794Z,63.41
2023-03-20T06:54:12.725Z,62.35
2023-03-20T06:56:43.625Z,61.99
2023-03-20T06:59:12.163Z,62.44
2023-03-20T07:01:40.785Z,62.20
2023-03-20T07:04:09.348Z,62.17
2023-03-20T07:06:38.447Z,61.62
2023-03-20T07:09:07.826Z,61.88
2023-03-20T07:11:37.195Z,61.98
2023-03-20T07:14:05.712Z,61.54
2023-03-20T07:16:35.017Z,62.48
2023-03-20T07:19:03.803Z,61.40
2023-03-20T07:21:35.385Z,61.67
2023-03-20T07:24:03.363Z,61.47
2023-03-20T07:26:32.564Z,61.12
2023-03-20T07:29:02.402Z,61.04
2023-03-20T07:31:31.323Z,61.26
2023-03-20T07:34:01.283Z,60.95
2023-03-20T07:36:29.907Z,60.91
2023-03-20T07:38:57.826Z,60.62
2023-03-20T07:41:26.301Z,60.43
2023-03-20T07:43:54.823Z,60.57
2023-03-20T07:46:27.037Z,60.81
2023-03-20T07:48:56.661Z,60.24
2023-03-20T07:51:24.786Z,60.05
2023-03-20T07:53:54.984Z,60.04
2023-03-20T07:56:23.212Z,60.20
2023-03-20T07:58:52.005Z,60.11
2023-03-20T08:01:20.010Z,60.06
2023-03-20T08:03:49.633Z,59.95
2023-03-20T08:06:17.703Z,59.85
2023-03-20T08:08:46.052Z,59.38
2023-03-20T08:11:14.632Z,59.28
2023-03-20T08:13:42.597Z,59.28
2023-03-20T08:16:10.855Z,58.94
2023-03-20T08:18:39.213Z,59.06
2023-03-20T08:21:09.239Z,59.28
2023-03-20T08:23:37.128Z,59.40
2023-03-20T08:26:05.425Z,59.33
2023-03-20T08:28:46.531Z,59.29
2023-03-20T08:31:15.852Z,59.25
2023-03-20T08:33:43.795Z,59.20
2023-03-20T08:36:15.188Z,59.23
2023-03-20T08:38:43.935Z,59.03
2023-03-20T08:41:11.864Z,59.01
2023-03-20T08:43:39.877Z,58.69
2023-03-20T08:46:08.633Z,58.68
2023-03-20T08:48:37.121Z,58.33
2023-03-20T08:51:06.095Z,58.41
2023-03-20T08:53:35.624Z,58.61
2023-03-20T08:56:03.595Z,58.47
2023-03-20T08:58:31.607Z,58.52
2023-03-20T09:01:05.293Z,58.32
2023-03-20T09:03:33.333Z,58.48
2023-03-20T09:06:02.052Z,58.50
2023-03-20T09:08:32.108Z,58.54
2023-03-20T09:11:01.948Z,58.38
2023-03-20T09:13:30.276Z,58.24
2023-03-20T09:15:58.314Z,58.22
2023-03-20T09:18:26.493Z,58.18
2023-03-20T09:20:56.480Z,58.08
2023-03-20T09:23:24.925Z,57.85
2023-03-20T09:25:52.855Z,57.92
2023-03-20T09:28:22.440Z,57.69
2023-03-20T09:30:50.741Z,57.51
2023-03-20T09:33:19.181Z,57.45
2023-03-20T09:35:47.595Z,57.40
2023-03-20T09:38:15.680Z,57.37
2023-03-20T09:40:52.340Z,57.34
2023-03-20T09:43:35.413Z,57.60
2023-03-20T09:46:14.758Z,57.65
2023-03-20T09:48:51.950Z,57.68
2023-03-20T09:51:28.112Z,57.76
2023-03-20T09:54:01.165Z,57.92
2023-03-20T09:56:31.317Z,57.86
2023-03-20T09:59:07.794Z,57.75
2023-03-20T10:01:45.505Z,57.87
2023-03-20T10:04:14.448Z,57.79
2023-03-20T10:06:42.464Z,57.77
2023-03-20T10:09:18.772Z,57.79
2023-03-20T10:12:06.735Z,57.89
2023-03-20T10:14:46.132Z,57.85
2023-03-20T10:17:25.565Z,57.38
2023-03-20T10:19:58.975Z,57.25
2023-03-20T10:22:33.628Z,57.18
2023-03-20T10:25:08.712Z,57.07
2023-03-20T10:27:42.800Z,57.13
2023-03-20T10:30:27.564Z,56.98
2023-03-20T10:33:06.402Z,56.87
2023-03-20T10:35:40.707Z,57.10
2023-03-20T10:38:25.045Z,57.03
2023-03-20T10:40:55.020Z,57.00
2023-03-20T10:43:27.751Z,57.04
2023-03-20T10:46:02.196Z,56.92
2023-03-20T10:48:34.786Z,57.24
2023-03-20T10:51:04.437Z,57.42
2023-03-20T10:53:38.284Z,57.16
2023-03-20T10:56:09.774Z,56.86
2023-03-20T10:58:41.376Z,57.01
2023-03-20T11:01:10.917Z,56.66
2023-03-20T11:03:41.210Z,56.33
2023-03-20T11:06:18.436Z,56.11
2023-03-20T11:08:50.883Z,56.18
2023-03-20T11:11:24.279Z,56.20
2023-03-20T11:13:53.372Z,56.28
2023-03-20T11:16:24.881Z,56.56
2023-03-20T11:18:55.061Z,56.54
2023-03-20T11:21:25.623Z,56.53
2023-03-20T11:23:55.459Z,56.32
2023-03-20T11:26:35.607Z,56.53
2023-03-20T11:29:07.373Z,57.21
2023-03-20T11:31:38.849Z,57.20
2023-03-20T11:34:21.025Z,57.04
2023-03-20T11:37:09.211Z,56.77
2023-03-20T11:39:40.201Z,56.00
2023-03-20T11:42:23.887Z,56.13
2023-03-20T11:44:59.521Z,55.82
2023-03-20T11:47:33.765Z,56.34
2023-03-20T11:50:04.793Z,56.45
2023-03-20T11:52:35.639Z,56.42
2023-03-20T11:55:08.278Z,56.43
2023-03-20T11:57:38.308Z,56.44
2023-03-20T12:00:19.488Z,56.49
2023-03-20T12:02:49.384Z,56.63
2023-03-20T12:05:31.030Z,56.62
2023-03-20T12:08:02.769Z,57.01
2023-03-20T12:10:37.228Z,56.82
2023-03-20T12:13:12.888Z,56.84
2023-03-20T12:15:45.853Z,56.97
2023-03-20T12:18:21.176Z,57.11
2023-03-20T12:21:00.907Z,57.34
2023-03-20T12:23:35.547Z,57.58
2023-03-20T12:26:07.305Z,57.33
2023-03-20T12:28:41.728Z,57.66
2023-03-20T12:31:22.073Z,57.62
2023-03-20T12:33:55.811Z,57.28
2023-03-20T12:36:31.183Z,57.66
2023-03-20T12:38:59.571Z,57.91
2023-03-20T12:41:31.133Z,57.81
2023-03-20T12:44:17.333Z,57.87
2023-03-20T12:46:52.565Z,57.85
2023-03-20T12:49:33.021Z,57.97
2023-03-20T12:52:12.411Z,57.92
2023-03-20T12:55:02.514Z,58.13
2023-03-20T12:57:37.899Z,57.83
2023-03-20T13:00:19.212Z,57.81
2023-03-20T13:03:01.232Z,58.42
2023-03-20T13:05:39.882Z,58.31
2023-03-20T13:08:34.024Z,57.98
2023-03-20T13:11:11.386Z,57.60
2023-03-20T13:13:47.802Z,57.14
2023-03-20T13:16:24.630Z,57.17
2023-03-20T13:19:00.157Z,57.06
2023-03-20T13:21:36.735Z,57.30
2023-03-20T13:24:26.162Z,56.92
2023-03-20T13:27:04.026Z,55.09
2023-03-20T13:29:45.254Z,55.86
2023-03-20T13:32:23.788Z,55.10
2023-03-20T13:35:17.367Z,54.58
2023-03-20T13:37:50.549Z,53.69
2023-03-20T13:40:23.365Z,55.10
2023-03-20T13:42:56.072Z,54.99
2023-03-20T13:45:32.390Z,53.71
2023-03-20T13:48:09.015Z,54.21
2023-03-20T13:50:53.326Z,54.29
2023-03-20T13:53:31.256Z,53.05
2023-03-20T13:56:07.141Z,54.15
2023-03-20T13:58:52.796Z,53.91
2023-03-20T14:01:28.768Z,53.57
2023-03-20T14:03:57.809Z,53.73
2023-03-20T14:06:54.279Z,54.30
2023-03-20T14:09:30.496Z,51.60
2023-03-20T14:12:06.320Z,52.37
2023-03-20T14:14:42.799Z,53.58
2023-03-20T14:17:19.090Z,52.03
2023-03-20T14:19:48.573Z,51.02
2023-03-20T14:22:19.439Z,52.99
2023-03-20T14:24:54.990Z,52.91
2023-03-20T14:27:42.934Z,51.59
2023-03-20T14:30:41.901Z,53.24
2023-03-20T14:33:27.588Z,51.26
2023-03-20T14:36:22.162Z,51.92
2023-03-20T14:38:56.498Z,51.83
2023-03-20T14:41:32.450Z,52.74
2023-03-20T14:44:17.968Z,52.77
2023-03-20T14:46:55.703Z,52.75
2023-03-20T14:49:30.914Z,53.16
2023-03-20T14:52:10.541Z,53.28
2023-03-20T14:54:41.540Z,53.34
2023-03-20T14:57:19.936Z,52.87
2023-03-20T14:59:49.779Z,53.02
2023-03-20T15:02:27.372Z,53.67
2023-03-20T15:04:57.322Z,53.71
2023-03-20T15:07:29.278Z,54.15
2023-03-20T15:10:02.898Z,54.35
2023-03-20T15:12:37.207Z,54.71
2023-03-20T15:15:07.647Z,54.84
2023-03-20T15:17:38.097Z,54.97
2023-03-20T15:20:16.287Z,55.07
2023-03-20T15:22:49.129Z,54.93
2023-03-20T15:25:18.698Z,54.90
2023-03-20T15:27:49.546Z,54.62
2023-03-20T15:30:21.221Z,54.66
2023-03-20T15:32:55.918Z,55.17
2023-03-20T15:35:27.531Z,55.02
2023-03-20T15:37:59.373Z,54.88
2023-03-20T15:40:37.205Z,55.01
2023-03-20T15:43:17.960Z,54.98
2023-03-20T15:45:46.569Z,54.86
2023-03-20T15:48:17.596Z,54.74
2023-03-20T15:50:49.906Z,54.76
2023-03-20T15:53:20.636Z,54.86
2023-03-20T15:55:51.094Z,54.78
2023-03-20T15:58:21.420Z,54.74
2023-03-20T16:00:51.027Z,54.73
2023-03-20T16:03:23.190Z,54.62
2023-03-20T16:05:52.086Z,54.66
2023-03-20T16:08:25.615Z,54.56
2023-03-20T16:10:57.699Z,54.54
2023-03-20T16:13:30.804Z,54.67
2023-03-20T16:15:59.231Z,54.45
2023-03-20T16:18:39.555Z,54.40
2023-03-20T16:21:10.805Z,54.61
2023-03-20T16:23:42.018Z,54.53
2023-03-20T16:26:14.011Z,54.50
2023-03-20T16:28:47.351Z,54.47
2023-03-20T16:31:18.932Z,54.42
2023-03-20T16:33:48.945Z,54.47
2023-03-20T16:36:20.803Z,54.48
2023-03-20T16:38:57.786Z,54.36
2023-03-20T16:41:30.484Z,54.38
2023-03-20T16:44:01.337Z,54.34
2023-03-20T16:46:29.345Z,54.40
2023-03-20T16:48:59.057Z,54.28
2023-03-20T16:51:30.532Z,54.34
2023-03-20T16:54:01.387Z,54.27
2023-03-20T16:56:34.228Z,54.29
2023-03-20T16:59:09.523Z,54.26
2023-03-20T17:01:43.169Z,54.19
2023-03-20T17:04:18.847Z,54.16
2023-03-20T17:06:49.400Z,54.21
2023-03-20T17:09:21.254Z,54.19
2023-03-20T17:11:51.549Z,54.17
2023-03-20T17:14:20.925Z,54.12
2023-03-20T17:16:49.407Z,54.11
2023-03-20T17:19:20.530Z,54.23
2023-03-20T17:21:49.141Z,54.18
2023-03-20T17:24:18.469Z,54.21
2023-03-20T17:26:51.352Z,54.22
2023-03-20T17:29:20.925Z,54.25
2023-03-20T17:31:49.276Z,54.23
2023-03-20T17:34:17.143Z,54.20
2023-03-20T17:36:46.141Z,54.17
2023-03-20T17:39:19.928Z,54.22
2023-03-20T17:41:48.562Z,54.30
2023-03-20T17:44:17.064Z,54.22
2023-03-20T17:46:57.884Z,54.37
2023-03-20T17:49:28.278Z,54.54
2023-03-20T17:51:56.769Z,54.63
2023-03-20T17:54:24.958Z,54.77
2023-03-20T17:56:53.590Z,54.56
2023-03-20T17:59:21.515Z,54.40
2023-03-20T18:01:50.987Z,54.38
2023-03-20T18:04:19.863Z,54.36
2023-03-20T18:06:49.182Z,54.32
2023-03-20T18:09:17.862Z,54.43
2023-03-20T18:11:46.594Z,54.23
2023-03-20T18:14:18.223Z,54.14
2023-03-20T18:16:46.626Z,54.12
2023-03-20T18:19:24.225Z,54.16
2023-03-20T18:21:52.535Z,54.34
2023-03-20T18:24:20.666Z,54.22
2023-03-20T18:26:48.875Z,54.24
2023-03-20T18:29:17.223Z,54.22
2023-03-20T18:31:45.383Z,54.31
2023-03-20T18:34:13.540Z,54.43
2023-03-20T18:36:43.885Z,54.45
2023-03-20T18:39:17.484Z,54.57
2023-03-20T18:41:45.822Z,54.79
2023-03-20T18:44:14.186Z,54.66
2023-03-20T18:46:42.745Z,54.69
2023-03-20T18:49:15.610Z,54.87
2023-03-20T18:51:45.709Z,55.05
2023-03-20T18:54:14.540Z,55.04
2023-03-20T18:56:43.185Z,55.01
2023-03-20T18:59:13.728Z,54.90
2023-03-20T19:01:42.136Z,55.03
2023-03-20T19:04:10.329Z,55.14
2023-03-20T19:06:38.389Z,55.21
2023-03-20T19:09:10.876Z,55.33
2023-03-20T19:11:39.288Z,55.37
2023-03-20T19:14:07.614Z,55.33
2023-03-20T19:16:38.013Z,55.32
2023-03-20T19:19:09.043Z,55.38
2023-03-20T19:21:38.762Z,55.55
2023-03-20T19:24:09.605Z,55.77
2023-03-20T19:26:39.018Z,56.20
2023-03-20T19:29:09.187Z,56.65
2023-03-20T19:31:37.950Z,56.38
2023-03-20T19:34:06.777Z,56.21
2023-03-20T19:36:37.781Z,56.17
2023-03-20T19:39:09.407Z,56.08
2023-03-20T19:41:37.952Z,56.45
2023-03-20T19:44:07.098Z,56.29
2023-03-20T19:46:40.047Z,56.42
2023-03-20T19:49:18.557Z,56.42
2023-03-20T19:51:47.950Z,56.43
2023-03-20T19:54:18.071Z,56.18
2023-03-20T19:56:46.438Z,56.37
2023-03-20T19:59:16.840Z,56.44
2023-03-20T20:01:46.627Z,56.26
2023-03-20T20:04:16.163Z,56.01
2023-03-20T20:06:47.229Z,55.96
2023-03-20T20:09:18.140Z,56.05
2023-03-20T20:11:46.335Z,55.94
2023-03-20T20:14:15.410Z,56.18
2023-03-20T20:16:45.580Z,56.17
2023-03-20T20:19:14.597Z,56.29
2023-03-20T20:24:32.874Z,56.27
2023-03-20T20:27:15.792Z,56.30
2023-03-20T20:29:49.111Z,56.56
2023-03-20T20:32:18.207Z,56.62
2023-03-20T20:38:30.673Z,56.80
2023-03-20T20:40:28.245Z,56.80
2023-03-20T20:43:01.410Z,56.99
2023-03-20T20:45:31.942Z,57.17
2023-03-20T20:48:01.005Z,57.54
2023-03-20T20:50:31.864Z,57.35
2023-03-20T20:53:00.472Z,57.33
2023-03-20T20:55:29.989Z,57.38
2023-03-20T20:57:58.111Z,57.24
2023-03-20T21:00:47.356Z,57.27
2023-03-20T21:03:17.378Z,57.42
2023-03-20T21:05:45.642Z,57.37
2023-03-20T21:08:14.607Z,56.99
2023-03-20T21:10:45.375Z,56.99
2023-03-20T21:13:13.802Z,56.99
2023-03-20T21:15:42.091Z,57.15
2023-03-20T21:18:10.144Z,57.21
2023-03-20T21:20:38.770Z,57.07
2023-03-20T21:23:06.723Z,57.10
2023-03-20T21:25:45.562Z,56.98
2023-03-20T21:28:16.610Z,56.94
2023-03-20T21:31:09.065Z,57.19
2023-03-20T21:33:33.770Z,57.36
2023-03-20T21:36:02.401Z,57.35
2023-03-20T21:39:02.154Z,57.66
2023-03-20T21:41:19.009Z,57.66
2023-03-20T21:43:49.471Z,57.93
2023-03-20T21:46:56.689Z,57.70
2023-03-20T21:58:21.398Z,57.48
2023-03-20T22:03:28.901Z,57.82
2023-03-20T22:09:38.934Z,57.43
2023-03-20T22:12:14.510Z,57.36
2023-03-20T22:23:43.257Z,57.41
2023-03-20T22:26:25.397Z,57.42
2023-03-20T22:34:46.189Z,57.71
2023-03-20T22:37:40.788Z,57.53
2023-03-20T22:45:19.708Z,57.75
2023-03-20T22:47:48.174Z,57.47
2023-03-20T22:50:18.948Z,57.69
2023-03-20T22:52:49.493Z,57.50
2023-03-20T22:55:18.351Z,57.22
2023-03-20T22:58:03.772Z,57.01
2023-03-20T23:00:34.770Z,56.86
2023-03-20T23:03:17.162Z,56.79
2023-03-20T23:06:09.321Z,56.46
2023-03-20T23:08:48.031Z,56.46
2023-03-20T23:11:20.533Z,56.44
2023-03-20T23:13:48.607Z,56.33
2023-03-20T23:16:16.645Z,56.18
2023-03-20T23:18:45.121Z,56.00
2023-03-20T23:21:14.524Z,56.08
2023-03-20T23:23:42.524Z,56.01
2023-03-20T23:26:13.764Z,55.81
2023-03-20T23:28:43.976Z,55.87
2023-03-20T23:31:15.832Z,55.81
2023-03-20T23:33:48.343Z,55.62
2023-03-20T23:36:34.559Z,55.72
2023-03-20T23:39:03.352Z,55.60
2023-03-20T23:42:01.709Z,55.61
2023-03-20T23:44:19.877Z,55.74
2023-03-20T23:46:48.573Z,56.02
2023-03-20T23:49:17.388Z,55.93
2023-03-20T23:51:47.187Z,56.01
2023-03-20T23:54:15.957Z,55.87
2023-03-20T23:56:44.127Z,56.05
2023-03-20T23:59:20.976Z,55.82
